Time;durP1;ratioP1;P1;durP2;ratioP2;P2;SDS_P1;SDS_P2;PMS_P1;PMS_P2;Temp;Humidity;BMP_temperature;BMP_pressure;BME280_temperature;BME280_humidity;BME280_pressure;Samples;Min_cycle;Max_cycle;Signal;HPM_P1;HPM_P2
2022/11/08 03:02:40;;;;;;;17.53;16.13;;;4.50;99.90;;;;;;4980261;23;20231;-83
2022/11/08 03:05:07;;;;;;;17.00;15.77;;;4.40;99.90;;;;;;4920206;29;20233;-83
2022/11/08 03:07:34;;;;;;;16.77;15.47;;;4.50;99.90;;;;;;4918321;29;20220;-83
2022/11/08 03:10:01;;;;;;;16.77;15.57;;;4.50;99.90;;;;;;4918854;29;20251;-83
2022/11/08 03:12:28;;;;;;;16.80;15.60;;;4.50;99.90;;;;;;4918609;29;20219;-83
2022/11/08 03:14:55;;;;;;;16.47;15.37;;;4.50;99.90;;;;;;4920050;29;20202;-83
2022/11/08 03:17:22;;;;;;;16.57;15.37;;;4.50;99.90;;;;;;4919535;29;20665;-83
2022/11/08 03:19:50;;;;;;;15.90;14.80;;;4.50;99.90;;;;;;4918364;29;20210;-83
2022/11/08 03:22:17;;;;;;;17.60;16.30;;;4.30;99.90;;;;;;4918520;29;20246;-82
2022/11/08 03:24:43;;;;;;;17.10;15.73;;;4.30;99.90;;;;;;4918700;29;20676;-83
2022/11/08 03:27:12;;;;;;;15.83;14.63;;;4.30;99.90;;;;;;4918575;29;20585;-83
2022/11/08 03:29:39;;;;;;;16.30;15.07;;;4.20;99.90;;;;;;4918171;29;20199;-83
2022/11/08 03:32:06;;;;;;;15.93;14.53;;;4.10;99.90;;;;;;4919438;29;20230;-83
2022/11/08 03:34:33;;;;;;;16.13;14.90;;;4.10;99.90;;;;;;4919868;29;20215;-83
2022/11/08 03:37:01;;;;;;;15.43;14.33;;;4.00;99.90;;;;;;4918571;29;20231;-83
2022/11/08 03:39:28;;;;;;;16.70;15.50;;;3.90;99.90;;;;;;4918239;29;20200;-83
2022/11/08 03:41:55;;;;;;;16.90;15.63;;;3.90;99.90;;;;;;4919987;29;20208;-85
2022/11/08 03:44:22;;;;;;;16.53;15.33;;;3.90;99.90;;;;;;4918315;29;20673;-81
2022/11/08 03:46:49;;;;;;;15.70;14.57;;;3.90;99.90;;;;;;4919708;29;20395;-81
2022/11/08 03:49:15;;;;;;;16.20;15.10;;;3.90;99.90;;;;;;4920137;29;20219;-83
2022/11/08 03:51:42;;;;;;;16.83;15.57;;;3.80;99.90;;;;;;4914362;29;20224;-86
2022/11/08 03:54:11;;;;;;;16.13;14.83;;;3.80;99.90;;;;;;4911067;29;20197;-84
2022/11/08 03:56:39;;;;;;;15.87;14.73;;;3.80;99.90;;;;;;4914499;29;20298;-85
2022/11/08 03:59:06;;;;;;;15.60;14.40;;;3.80;99.90;;;;;;4910930;29;20227;-85
2022/11/08 04:01:32;;;;;;;16.43;15.33;;;3.80;99.90;;;;;;4916910;29;20275;-85
2022/11/08 04:03:59;;;;;;;16.30;15.20;;;3.80;99.90;;;;;;4922538;29;20204;-85
2022/11/08 04:06:26;;;;;;;16.00;14.90;;;3.80;99.90;;;;;;4916528;29;20215;-85
2022/11/08 04:08:53;;;;;;;16.07;14.90;;;3.80;99.90;;;;;;4919180;29;20212;-84
2022/11/08 04:17:04;;;;;;;16.00;14.90;;;3.70;99.90;;;;;;4870627;29;20424;-84
2022/11/08 04:22:15;;;;;;;16.90;15.70;;;3.70;99.90;;;;;;4916187;29;20243;-84
2022/11/08 04:24:42;;;;;;;17.07;15.77;;;3.70;99.90;;;;;;4916576;29;20208;-85
2022/11/08 04:27:10;;;;;;;17.60;16.10;;;3.80;99.90;;;;;;4916630;29;20204;-85
2022/11/08 04:29:37;;;;;;;17.73;16.33;;;4.00;99.90;;;;;;4916356;29;20220;-85
2022/11/08 04:32:04;;;;;;;18.60;17.00;;;4.10;99.90;;;;;;4916427;29;20280;-84
2022/11/08 04:34:31;;;;;;;17.70;16.37;;;4.30;99.90;;;;;;4917430;29;20203;-79
2022/11/08 04:36:58;;;;;;;18.43;17.10;;;4.30;99.90;;;;;;4915266;29;20215;-80
2022/11/08 04:39:24;;;;;;;19.23;17.83;;;4.40;99.90;;;;;;4918712;29;20252;-85
2022/11/08 04:41:51;;;;;;;19.10;17.70;;;4.50;99.90;;;;;;4917622;29;20223;-85
2022/11/08 04:44:19;;;;;;;18.43;17.00;;;4.50;99.90;;;;;;4916765;29;20204;-85
2022/11/08 04:46:46;;;;;;;17.90;16.60;;;4.40;99.90;;;;;;4918439;29;20199;-84
2022/11/08 04:49:13;;;;;;;17.80;16.50;;;4.40;99.90;;;;;;4918039;29;20589;-84
2022/11/08 04:51:40;;;;;;;19.00;17.70;;;4.30;99.90;;;;;;4918563;29;20219;-84
2022/11/08 04:54:07;;;;;;;18.70;17.20;;;4.30;99.90;;;;;;4917030;29;20679;-84
2022/11/08 04:56:34;;;;;;;18.60;17.10;;;4.30;99.90;;;;;;4916463;29;20204;-85
2022/11/08 04:59:01;;;;;;;17.77;16.47;;;4.30;99.90;;;;;;4917158;29;20565;-84
2022/11/08 05:01:31;;;;;;;18.73;17.43;;;4.30;99.90;;;;;;4918185;29;20239;-85
2022/11/08 05:03:58;;;;;;;18.03;16.63;;;4.20;99.90;;;;;;4913161;29;20218;-85
2022/11/08 05:06:27;;;;;;;19.50;17.83;;;4.20;99.90;;;;;;4919819;29;20244;-86
2022/11/08 05:08:55;;;;;;;18.40;17.00;;;4.20;99.90;;;;;;4921429;29;20215;-86
2022/11/08 05:11:23;;;;;;;18.47;17.07;;;4.20;99.90;;;;;;4917806;29;20238;-84
2022/11/08 05:13:51;;;;;;;19.67;18.17;;;4.20;99.90;;;;;;4918853;29;20200;-87
2022/11/08 05:16:20;;;;;;;20.07;18.60;;;4.20;99.90;;;;;;4918698;29;20227;-85
2022/11/08 05:18:48;;;;;;;19.10;17.63;;;4.20;99.90;;;;;;4919102;29;20203;-85
2022/11/08 05:24:03;;;;;;;18.00;16.50;;;4.10;99.90;;;;;;4917453;29;20188;-84
2022/11/08 05:26:32;;;;;;;17.30;16.10;;;4.10;99.90;;;;;;4909177;29;20204;-85
2022/11/08 05:28:59;;;;;;;17.47;16.37;;;4.00;99.90;;;;;;4916618;29;20215;-86
2022/11/08 05:31:26;;;;;;;17.70;16.40;;;4.10;99.90;;;;;;4916227;29;20298;-85
2022/11/08 05:33:54;;;;;;;18.30;17.00;;;4.10;99.90;;;;;;4916284;29;20211;-84
2022/11/08 05:36:22;;;;;;;18.70;17.30;;;4.10;99.90;;;;;;4916372;29;20222;-84
2022/11/08 05:38:49;;;;;;;18.40;17.07;;;4.10;99.90;;;;;;4917384;29;20204;-85
2022/11/08 05:41:18;;;;;;;18.57;17.27;;;4.10;99.90;;;;;;4918073;29;20282;-84
2022/11/08 05:43:46;;;;;;;18.80;17.33;;;4.10;99.90;;;;;;4916906;29;20211;-87
2022/11/08 05:46:14;;;;;;;19.03;17.57;;;4.10;99.90;;;;;;4916852;29;20196;-86
2022/11/08 05:48:42;;;;;;;19.07;17.73;;;4.10;99.90;;;;;;4916882;29;20264;-84
2022/11/08 05:51:14;;;;;;;19.53;18.13;;;4.00;99.90;;;;;;4916875;29;20215;-84
2022/11/08 05:53:41;;;;;;;18.77;17.37;;;4.00;99.90;;;;;;4911656;29;20543;-84
2022/11/08 05:56:08;;;;;;;19.47;18.17;;;3.90;99.90;;;;;;4915915;29;20196;-84
2022/11/08 05:58:36;;;;;;;18.13;16.90;;;3.90;99.90;;;;;;4915808;29;20203;-84
2022/11/08 06:01:04;;;;;;;19.10;17.70;;;3.90;99.90;;;;;;4915627;29;20236;-84
2022/11/08 06:03:31;;;;;;;19.40;18.00;;;3.80;99.90;;;;;;4917445;29;20188;-84
2022/11/08 06:06:02;;;;;;;19.70;18.17;;;3.80;99.90;;;;;;4917653;29;20200;-84
2022/11/08 06:08:31;;;;;;;19.83;18.37;;;3.80;99.90;;;;;;4919758;29;20204;-84
2022/11/08 06:11:03;;;;;;;20.27;18.53;;;3.90;99.90;;;;;;4919575;29;20696;-83
2022/11/08 06:13:30;;;;;;;20.03;18.43;;;3.90;99.90;;;;;;4922546;29;20557;-85
2022/11/08 06:16:00;;;;;;;19.73;18.43;;;3.90;99.90;;;;;;4921846;29;20204;-84
2022/11/08 06:18:26;;;;;;;20.20;18.60;;;3.90;99.90;;;;;;4920210;29;20200;-84
2022/11/08 06:20:53;;;;;;;18.83;17.53;;;3.90;99.90;;;;;;4920009;29;20247;-84
2022/11/08 06:23:22;;;;;;;18.97;17.57;;;3.90;99.90;;;;;;4920204;29;20200;-86
2022/11/08 06:25:50;;;;;;;19.70;18.20;;;3.90;99.90;;;;;;4921867;29;20291;-84
2022/11/08 06:28:17;;;;;;;19.97;18.47;;;3.90;99.90;;;;;;4920661;29;20579;-85
2022/11/08 06:30:44;;;;;;;20.17;18.67;;;3.90;99.90;;;;;;4919780;29;20219;-84
2022/11/08 06:33:11;;;;;;;19.30;17.90;;;3.90;99.90;;;;;;4919783;29;20206;-87
2022/11/08 06:35:38;;;;;;;19.40;17.83;;;3.90;99.90;;;;;;4919229;29;20192;-83
2022/11/08 06:38:05;;;;;;;19.13;17.43;;;3.90;99.90;;;;;;4918658;29;20204;-84
2022/11/08 06:40:32;;;;;;;19.03;17.43;;;3.90;99.90;;;;;;4918002;29;20208;-84
2022/11/08 06:43:01;;;;;;;18.70;17.40;;;3.90;99.90;;;;;;4918214;29;20202;-84
2022/11/08 06:45:28;;;;;;;20.97;18.80;;;3.90;99.90;;;;;;4918323;29;20196;-85
2022/11/08 06:47:57;;;;;;;19.13;17.33;;;4.10;99.90;;;;;;4918897;29;20200;-84
2022/11/08 06:50:24;;;;;;;19.10;17.70;;;4.10;99.90;;;;;;4918225;29;20556;-84
2022/11/08 06:52:55;;;;;;;18.20;16.80;;;4.20;99.90;;;;;;4918966;29;20295;-84
2022/11/08 06:55:22;;;;;;;18.00;16.70;;;4.30;99.90;;;;;;4920568;29;20429;-84
2022/11/08 06:57:49;;;;;;;18.83;17.33;;;4.30;99.90;;;;;;4921146;29;20246;-85
2022/11/08 07:00:18;;;;;;;19.67;18.20;;;4.40;99.90;;;;;;4918190;29;20204;-84
2022/11/08 07:02:45;;;;;;;19.80;18.20;;;4.50;99.90;;;;;;4917065;29;20231;-86
2022/11/08 07:05:12;;;;;;;19.87;18.37;;;4.60;99.90;;;;;;4919540;29;20204;-84
2022/11/08 07:07:39;;;;;;;20.63;19.03;;;4.70;99.90;;;;;;4918541;29;20215;-84
2022/11/08 07:10:07;;;;;;;20.17;18.77;;;4.70;99.90;;;;;;4919446;29;20227;-84
2022/11/08 07:12:34;;;;;;;20.83;19.20;;;4.90;99.90;;;;;;4917718;29;20224;-84
2022/11/08 07:15:00;;;;;;;20.87;19.27;;;5.00;99.90;;;;;;4914285;29;20211;-85
2022/11/08 07:17:29;;;;;;;19.77;18.47;;;5.20;99.90;;;;;;4911386;29;20203;-84
2022/11/08 07:19:55;;;;;;;19.87;18.43;;;5.40;99.90;;;;;;4916856;29;20209;-84
2022/11/08 07:22:22;;;;;;;18.33;17.03;;;5.50;99.90;;;;;;4917620;29;20231;-84
2022/11/08 07:24:49;;;;;;;19.40;17.80;;;5.60;99.90;;;;;;4917678;29;20208;-85
2022/11/08 07:27:16;;;;;;;18.37;17.00;;;5.80;99.90;;;;;;4917224;29;20208;-84
2022/11/08 07:29:43;;;;;;;18.40;17.10;;;5.90;99.90;;;;;;4920030;29;20216;-84
2022/11/08 07:32:10;;;;;;;19.07;17.67;;;6.10;99.90;;;;;;4919948;29;20610;-86
2022/11/08 07:34:38;;;;;;;18.87;17.47;;;6.20;99.90;;;;;;4919995;29;20212;-84
2022/11/08 07:37:05;;;;;;;19.03;17.73;;;6.20;99.90;;;;;;4917230;29;20204;-84
2022/11/08 07:39:32;;;;;;;18.03;16.73;;;6.30;99.90;;;;;;4916893;29;20213;-84
2022/11/08 07:41:59;;;;;;;18.13;16.73;;;6.40;99.90;;;;;;4916905;29;20264;-85
2022/11/08 07:44:29;;;;;;;17.93;16.63;;;6.40;99.90;;;;;;4916450;29;20209;-84
2022/11/08 07:46:56;;;;;;;18.10;16.80;;;6.40;99.90;;;;;;4917738;29;20201;-83
2022/11/08 07:49:23;;;;;;;16.43;15.33;;;6.50;99.90;;;;;;4917360;29;20282;-83
2022/11/08 07:51:51;;;;;;;17.37;16.17;;;6.60;99.90;;;;;;4918142;29;20226;-83
2022/11/08 07:54:18;;;;;;;17.00;15.90;;;6.60;99.90;;;;;;4916056;29;20265;-83
2022/11/08 07:56:45;;;;;;;18.50;17.27;;;6.80;99.90;;;;;;4916665;29;20442;-83
2022/11/08 07:59:12;;;;;;;16.93;15.80;;;6.90;99.90;;;;;;4916127;29;20202;-83
2022/11/08 08:01:38;;;;;;;17.40;16.10;;;7.10;99.90;;;;;;4916864;29;20229;-83
2022/11/08 08:04:05;;;;;;;17.30;16.07;;;7.30;99.90;;;;;;4916074;29;20206;-82
2022/11/08 08:06:32;;;;;;;16.80;15.60;;;7.30;99.90;;;;;;4916369;29;20214;-82
2022/11/08 08:09:00;;;;;;;17.90;16.50;;;7.50;99.90;;;;;;4916092;29;20218;-83
2022/11/08 08:11:28;;;;;;;17.77;16.27;;;7.70;99.90;;;;;;4915496;29;20277;-85
2022/11/08 08:13:55;;;;;;;16.97;15.77;;;8.00;99.90;;;;;;4916141;29;20214;-84
2022/11/08 08:16:22;;;;;;;11.23;10.10;;;8.50;99.90;;;;;;4917821;29;20205;-83
2022/11/08 08:18:49;;;;;;;12.33;11.43;;;8.80;99.90;;;;;;4917179;29;20191;-83
2022/11/08 08:21:16;;;;;;;11.13;7.10;;;9.10;99.90;;;;;;4916166;29;20275;-84
2022/11/08 08:23:43;;;;;;;9.03;6.47;;;9.50;99.90;;;;;;4915247;29;20208;-83
2022/11/08 08:26:12;;;;;;;15.30;14.00;;;9.70;99.90;;;;;;4914940;29;20208;-83
2022/11/08 08:28:38;;;;;;;14.30;13.30;;;10.00;99.90;;;;;;4916953;29;20199;-84
2022/11/08 08:31:06;;;;;;;14.20;13.10;;;10.20;99.90;;;;;;4914702;29;20587;-83
2022/11/08 08:33:34;;;;;;;14.20;13.10;;;10.10;99.90;;;;;;4917012;29;20196;-83
2022/11/08 08:36:01;;;;;;;14.70;13.70;;;10.30;99.90;;;;;;4915646;29;20219;-83
2022/11/08 08:38:28;;;;;;;13.20;12.10;;;10.60;99.90;;;;;;4915826;29;20572;-83
2022/11/08 08:40:54;;;;;;;14.00;13.10;;;10.80;99.90;;;;;;4915313;29;20222;-83
2022/11/08 08:43:23;;;;;;;13.97;12.77;;;11.10;99.90;;;;;;4915993;29;20221;-83
2022/11/08 08:45:50;;;;;;;13.73;12.63;;;11.30;99.90;;;;;;4916000;29;20242;-83
2022/11/08 08:48:17;;;;;;;13.17;12.27;;;11.20;99.90;;;;;;4916678;29;20272;-83
2022/11/08 08:50:44;;;;;;;12.83;11.93;;;11.00;99.90;;;;;;4916151;29;20321;-81
2022/11/08 08:53:11;;;;;;;13.70;12.60;;;10.70;99.90;;;;;;4915438;29;20202;-81
2022/11/08 08:55:40;;;;;;;13.70;12.77;;;10.60;99.90;;;;;;4915498;29;20206;-82
2022/11/08 08:58:07;;;;;;;13.70;12.80;;;10.40;99.90;;;;;;4915515;29;20198;-81
2022/11/08 09:00:35;;;;;;;13.33;12.20;;;10.40;99.90;;;;;;4915229;29;20208;-84
2022/11/08 09:03:03;;;;;;;13.13;12.13;;;10.30;99.90;;;;;;4915542;29;20205;-84
2022/11/08 09:05:30;;;;;;;13.00;12.10;;;10.30;99.90;;;;;;4919906;29;20208;-82
2022/11/08 09:07:57;;;;;;;12.47;11.63;;;10.30;99.90;;;;;;4917750;29;20212;-84
2022/11/08 09:10:24;;;;;;;13.20;12.10;;;10.50;99.90;;;;;;4915333;29;20754;-84
2022/11/08 09:12:51;;;;;;;12.32;11.52;;;10.70;99.90;;;;;;4916161;29;20443;-84
2022/11/08 09:15:21;;;;;;;7.70;7.10;;;10.80;99.90;;;;;;4919098;29;20207;-84
2022/11/08 09:17:49;;;;;;;13.97;12.97;;;10.80;99.90;;;;;;4915284;29;20204;-82
2022/11/08 09:20:16;;;;;;;12.73;11.73;;;10.70;99.90;;;;;;4914658;29;20203;-82
2022/11/08 09:22:43;;;;;;;12.83;11.93;;;10.60;99.90;;;;;;4916355;29;20451;-82
2022/11/08 09:25:10;;;;;;;12.50;11.60;;;10.40;99.90;;;;;;4916099;29;20221;-82
2022/11/08 09:27:37;;;;;;;13.23;12.30;;;10.40;99.90;;;;;;4914851;29;20241;-81
2022/11/08 09:30:05;;;;;;;12.57;11.77;;;10.30;99.90;;;;;;4914325;29;20225;-82
2022/11/08 09:32:32;;;;;;;10.95;10.25;;;10.30;99.90;;;;;;4913501;29;20470;-82
2022/11/08 09:35:00;;;;;;;12.67;11.77;;;10.30;99.90;;;;;;4915797;29;20239;-82
2022/11/08 09:37:27;;;;;;;12.90;12.00;;;10.50;99.90;;;;;;4907895;29;20203;-82
2022/11/08 09:39:54;;;;;;;12.87;11.97;;;10.70;99.90;;;;;;4915514;29;20209;-82
2022/11/08 09:42:38;;;;;;;13.80;12.80;;;10.80;99.90;;;;;;4914911;29;20943;-83
2022/11/08 09:45:18;;;;;;;12.47;11.60;;;11.10;99.90;;;;;;4918573;29;20441;-87
2022/11/08 09:47:48;;;;;;;8.47;7.67;;;11.30;99.90;;;;;;4920732;29;20193;-86
2022/11/08 09:50:22;;;;;;;7.30;5.63;;;11.40;99.90;;;;;;4923310;29;20230;-84
2022/11/08 09:52:57;;;;;;;9.47;8.70;;;11.50;99.90;;;;;;4923721;29;20216;-82
2022/11/08 09:55:28;;;;;;;6.60;6.00;;;11.60;99.90;;;;;;4918080;29;20197;-82
2022/11/08 09:58:03;;;;;;;8.83;8.03;;;11.60;99.90;;;;;;4919339;29;20221;-82
2022/11/08 10:00:31;;;;;;;6.57;6.03;;;11.60;99.90;;;;;;4915407;29;20262;-82
2022/11/08 10:02:58;;;;;;;15.60;14.40;;;11.70;99.90;;;;;;4919856;29;20199;-83
2022/11/08 10:05:29;;;;;;;7.07;6.37;;;11.80;99.90;;;;;;4918344;29;20553;-79
2022/11/08 10:08:03;;;;;;;8.20;7.33;;;11.80;99.90;;;;;;4918452;29;20214;-83
2022/11/08 10:10:45;;;;;;;5.57;4.80;;;11.90;99.90;;;;;;4914375;29;20212;-83
2022/11/08 10:13:21;;;;;;;5.43;4.93;;;12.00;99.90;;;;;;4917044;29;20505;-84
2022/11/08 10:15:58;;;;;;;4.70;4.10;;;12.10;99.90;;;;;;4918199;29;20207;-84
2022/11/08 10:18:59;;;;;;;5.47;4.70;;;12.30;99.90;;;;;;4917203;29;20459;-84
2022/11/08 10:21:51;;;;;;;11.57;10.77;;;12.40;99.90;;;;;;4916786;29;20476;-84
2022/11/08 10:24:28;;;;;;;10.07;9.27;;;12.50;99.90;;;;;;4918030;29;20204;-84
2022/11/08 10:26:58;;;;;;;10.43;9.63;;;12.60;99.90;;;;;;4918310;29;20212;-84
2022/11/08 10:29:29;;;;;;;8.53;7.93;;;12.60;99.90;;;;;;4917612;29;20219;-85
2022/11/08 10:32:01;;;;;;;11.20;10.40;;;12.70;99.90;;;;;;4918744;29;20215;-84
2022/11/08 10:34:33;;;;;;;9.87;9.17;;;12.80;99.90;;;;;;4915171;29;20574;-84
2022/11/08 10:37:05;;;;;;;6.33;5.93;;;12.90;99.90;;;;;;4918215;29;20664;-84
2022/11/08 10:39:38;;;;;;;8.03;7.40;;;13.00;99.90;;;;;;4914425;29;20228;-85
2022/11/08 10:42:09;;;;;;;6.57;6.00;;;13.10;99.90;;;;;;4917254;29;20235;-84
2022/11/08 10:44:37;;;;;;;9.10;8.50;;;13.20;99.90;;;;;;4917718;29;20200;-84
2022/11/08 10:47:07;;;;;;;10.90;10.20;;;13.20;99.90;;;;;;4917403;29;20208;-84
2022/11/08 10:49:37;;;;;;;10.50;9.80;;;13.20;99.90;;;;;;4917074;29;20220;-83
2022/11/08 10:52:19;;;;;;;10.87;10.17;;;13.20;99.90;;;;;;4917276;29;20267;-83
2022/11/08 10:54:48;;;;;;;10.60;9.97;;;13.30;99.90;;;;;;4917307;29;20195;-84
2022/11/08 10:57:19;;;;;;;11.00;10.30;;;13.40;99.90;;;;;;4918399;29;20206;-86
2022/11/08 10:59:46;;;;;;;5.67;5.27;;;13.40;99.90;;;;;;4917211;29;20187;-85
2022/11/08 11:02:22;;;;;;;7.87;7.37;;;13.40;99.90;;;;;;4917096;29;20296;-84
2022/11/08 11:04:50;;;;;;;6.70;6.20;;;13.40;99.90;;;;;;4919199;29;20208;-84
2022/11/08 11:07:35;;;;;;;6.57;6.07;;;13.50;99.90;;;;;;4926384;29;20252;-84
2022/11/08 11:10:23;;;;;;;5.63;5.23;;;13.50;99.90;;;;;;4918381;29;20243;-86
2022/11/08 11:12:52;;;;;;;6.07;5.67;;;13.60;99.90;;;;;;4917002;29;20199;-86
2022/11/08 11:15:19;;;;;;;6.20;5.73;;;13.50;99.90;;;;;;4918404;29;20205;-85
2022/11/08 11:17:46;;;;;;;9.80;9.20;;;13.60;99.90;;;;;;4916758;29;20575;-84
2022/11/08 11:20:22;;;;;;;11.30;10.30;;;13.60;99.90;;;;;;4917704;29;20193;-85
2022/11/08 11:22:51;;;;;;;8.00;7.40;;;13.60;99.90;;;;;;4918034;29;20196;-85
2022/11/08 11:25:21;;;;;;;6.33;5.83;;;13.70;99.90;;;;;;4916911;29;20255;-84
2022/11/08 11:27:53;;;;;;;11.13;10.40;;;13.70;99.90;;;;;;4916874;29;20237;-85
2022/11/08 11:30:31;;;;;;;10.93;10.23;;;13.70;99.90;;;;;;4917067;29;20235;-85
2022/11/08 11:33:02;;;;;;;6.40;5.80;;;13.70;99.90;;;;;;4916890;29;20209;-85
2022/11/08 11:35:42;;;;;;;6.23;5.73;;;13.70;99.90;;;;;;4909021;29;20207;-84
2022/11/08 11:38:24;;;;;;;6.63;6.00;;;13.70;99.90;;;;;;4916425;29;20454;-84
2022/11/08 11:40:52;;;;;;;3.90;3.60;;;13.70;99.90;;;;;;4915527;29;20443;-85
2022/11/08 11:43:26;;;;;;;3.73;3.40;;;13.60;99.90;;;;;;4916328;29;20201;-84
2022/11/08 11:45:58;;;;;;;9.93;9.23;;;13.70;99.90;;;;;;4916736;29;20199;-85
2022/11/08 11:48:28;;;;;;;10.73;9.83;;;13.70;99.90;;;;;;4916223;29;20698;-84
2022/11/08 11:50:57;;;;;;;10.67;9.97;;;13.70;99.90;;;;;;4916102;29;20238;-84
2022/11/08 11:53:27;;;;;;;8.60;8.00;;;13.70;99.90;;;;;;4916097;29;20198;-84
2022/11/08 11:56:24;;;;;;;6.40;5.90;;;13.70;99.90;;;;;;4918739;29;20198;-84
2022/11/08 11:59:29;;;;;;;10.67;9.97;;;13.70;99.90;;;;;;4908031;29;20629;-85
2022/11/08 12:02:17;;;;;;;10.97;10.07;;;13.90;99.90;;;;;;4913479;29;20240;-85
2022/11/08 12:05:09;;;;;;;10.90;10.20;;;14.10;99.90;;;;;;4914712;29;20207;-84
2022/11/08 12:07:45;;;;;;;10.70;10.00;;;14.30;99.90;;;;;;4919956;29;20201;-83
2022/11/08 12:10:21;;;;;;;10.57;9.77;;;14.50;99.90;;;;;;4923716;29;20235;-86
2022/11/08 12:13:00;;;;;;;8.23;7.63;;;14.60;99.90;;;;;;4921053;29;20190;-83
2022/11/08 12:15:32;;;;;;;10.00;9.30;;;14.60;99.90;;;;;;4916100;29;20211;-84
2022/11/08 12:18:19;;;;;;;7.90;7.30;;;14.50;99.90;;;;;;4917009;29;20211;-85
2022/11/08 12:20:56;;;;;;;4.70;4.40;;;14.60;99.90;;;;;;4926107;29;20594;-84
2022/11/08 12:24:05;;;;;;;4.33;4.03;;;14.60;99.90;;;;;;4916204;29;20213;-84
2022/11/08 12:26:43;;;;;;;5.83;5.33;;;14.50;99.90;;;;;;4924509;29;20209;-84
2022/11/08 12:29:20;;;;;;;6.23;5.63;;;14.50;99.90;;;;;;4917808;29;20199;-84
2022/11/08 12:31:59;;;;;;;9.40;8.80;;;14.50;99.90;;;;;;4918037;29;20223;-84
2022/11/08 12:34:32;;;;;;;11.20;10.40;;;14.60;99.90;;;;;;4920766;29;20192;-83
2022/11/08 12:37:09;;;;;;;11.00;10.30;;;14.50;99.90;;;;;;4918474;29;20216;-85
2022/11/08 12:39:43;;;;;;;12.07;11.27;;;14.60;99.90;;;;;;4909007;29;20228;-84
2022/11/08 12:42:37;;;;;;;11.37;10.67;;;14.60;99.90;;;;;;4915774;29;20217;-81
2022/11/08 12:45:21;;;;;;;9.83;9.13;;;14.60;99.90;;;;;;4912524;29;20220;-85
2022/11/08 12:47:56;;;;;;;7.83;7.33;;;14.70;99.90;;;;;;4916659;29;20204;-85
2022/11/08 12:50:29;;;;;;;5.77;5.37;;;14.80;99.90;;;;;;4915919;29;20254;-83
2022/11/08 12:53:31;;;;;;;5.33;5.03;;;14.90;99.90;;;;;;4915127;29;20224;-84
2022/11/08 12:55:58;;;;;;;5.07;4.67;;;15.00;99.90;;;;;;4911439;29;20210;-84
2022/11/08 12:58:33;;;;;;;4.40;4.00;;;15.00;99.90;;;;;;4916434;29;20211;-84
2022/11/08 13:01:05;;;;;;;4.60;4.20;;;15.10;99.90;;;;;;4914443;29;20233;-83
2022/11/08 13:03:56;;;;;;;4.37;4.07;;;15.20;99.90;;;;;;4908916;29;20204;-84
2022/11/08 13:06:27;;;;;;;4.90;4.50;;;15.30;99.90;;;;;;4915022;29;20209;-84
2022/11/08 13:09:03;;;;;;;4.20;3.90;;;15.40;99.90;;;;;;4916549;29;20207;-84
2022/11/08 13:11:39;;;;;;;4.40;4.10;;;15.50;99.90;;;;;;4915813;29;20667;-84
2022/11/08 13:14:14;;;;;;;3.93;3.63;;;15.60;99.90;;;;;;4914563;29;20211;-84
2022/11/08 13:16:43;;;;;;;10.20;9.60;;;15.70;99.90;;;;;;4915191;29;20213;-83
2022/11/08 13:19:29;;;;;;;9.10;8.50;;;15.70;99.90;;;;;;4916296;29;20205;-84
2022/11/08 13:21:56;;;;;;;3.27;3.00;;;15.80;99.90;;;;;;4920025;29;20243;-84
2022/11/08 13:24:42;;;;;;;3.40;3.10;;;15.80;99.90;;;;;;4921616;29;20210;-85
2022/11/08 13:27:36;;;;;;;7.07;6.53;;;15.90;99.90;;;;;;4914194;29;20203;-84
2022/11/08 13:30:31;;;;;;;7.90;7.40;;;16.00;99.90;;;;;;4882803;29;20204;-83
2022/11/08 13:33:04;;;;;;;8.20;7.70;;;16.00;99.90;;;;;;4907034;29;20294;-84
2022/11/08 13:35:37;;;;;;;3.37;3.07;;;16.10;99.90;;;;;;4914722;29;20196;-84
2022/11/08 13:38:18;;;;;;;10.17;9.57;;;16.10;99.90;;;;;;4914641;29;20211;-84
2022/11/08 13:41:19;;;;;;;8.57;8.07;;;16.10;99.90;;;;;;4917412;29;20223;-85
2022/11/08 13:43:47;;;;;;;9.20;8.60;;;16.10;99.90;;;;;;4915831;29;20199;-84
2022/11/08 13:46:48;;;;;;;8.67;8.17;;;16.00;99.90;;;;;;4914286;29;20203;-84
2022/11/08 13:49:21;;;;;;;7.37;6.87;;;15.90;99.90;;;;;;4907254;29;20271;-84
2022/11/08 13:51:50;;;;;;;2.60;2.40;;;15.90;99.90;;;;;;4919404;29;20269;-85
2022/11/08 13:54:51;;;;;;;2.67;2.47;;;15.80;99.90;;;;;;4923172;29;20191;-85
2022/11/08 13:57:40;;;;;;;2.60;2.40;;;15.80;99.90;;;;;;4925817;29;20722;-86
2022/11/08 14:00:35;;;;;;;2.60;2.40;;;15.80;99.90;;;;;;4927091;29;20298;-86
2022/11/08 14:03:01;;;;;;;2.97;2.77;;;15.80;99.90;;;;;;4930661;29;20683;-84
2022/11/08 14:05:41;;;;;;;2.77;2.57;;;15.70;99.90;;;;;;4917675;29;20211;-86
2022/11/08 14:08:24;;;;;;;2.90;2.60;;;15.60;99.90;;;;;;4916822;29;20226;-84
2022/11/08 14:11:16;;;;;;;6.97;6.57;;;15.60;99.90;;;;;;4913984;29;20234;-84
2022/11/08 14:14:16;;;;;;;8.20;7.70;;;15.60;99.90;;;;;;4921248;29;20702;-84
2022/11/08 14:17:13;;;;;;;9.47;8.77;;;15.50;99.90;;;;;;4915278;29;20226;-84
2022/11/08 14:19:41;;;;;;;9.53;8.93;;;15.60;99.90;;;;;;4917455;29;20258;-85
2022/11/08 14:22:16;;;;;;;9.23;8.70;;;15.60;99.90;;;;;;4913837;29;20235;-84
2022/11/08 14:24:44;;;;;;;8.17;7.60;;;15.80;99.90;;;;;;4924958;29;20722;-84
2022/11/08 14:27:13;;;;;;;3.60;3.30;;;15.90;99.90;;;;;;4917683;29;20208;-84
2022/11/08 14:29:40;;;;;;;3.57;3.27;;;16.00;99.90;;;;;;4922642;29;20479;-85
2022/11/08 14:32:16;;;;;;;8.83;8.33;;;16.00;99.90;;;;;;4923001;29;20254;-84
2022/11/08 14:34:44;;;;;;;7.10;6.63;;;16.10;99.90;;;;;;4920595;29;20206;-84
2022/11/08 14:37:19;;;;;;;4.53;4.23;;;16.20;99.90;;;;;;4919775;29;20582;-84
2022/11/08 14:39:47;;;;;;;3.43;3.00;;;16.30;99.90;;;;;;4917722;29;20566;-85
2022/11/08 14:42:21;;;;;;;3.50;3.20;;;16.40;99.90;;;;;;4926203;29;20263;-87
2022/11/08 14:44:51;;;;;;;3.50;3.10;;;16.30;99.90;;;;;;4921313;29;20266;-85
2022/11/08 14:47:27;;;;;;;4.17;3.53;;;16.30;99.90;;;;;;4920002;29;20560;-84
2022/11/08 14:49:54;;;;;;;4.07;3.67;;;16.30;99.90;;;;;;4922080;29;20287;-84
2022/11/08 14:52:26;;;;;;;5.00;3.93;;;16.20;99.90;;;;;;4920958;29;20240;-84
2022/11/08 14:55:01;;;;;;;5.47;3.90;;;16.00;99.90;;;;;;4922658;29;20206;-84
2022/11/08 14:57:39;;;;;;;8.10;7.40;;;15.80;99.90;;;;;;4915121;29;20574;-84
2022/11/08 15:00:14;;;;;;;10.27;9.57;;;15.70;99.90;;;;;;4914273;29;20203;-84
2022/11/08 15:02:46;;;;;;;10.70;10.00;;;15.50;99.90;;;;;;4920780;29;20231;-85
2022/11/08 15:05:32;;;;;;;10.27;9.50;;;15.40;99.90;;;;;;4917149;29;20207;-84
2022/11/08 15:08:00;;;;;;;10.67;9.97;;;15.20;99.90;;;;;;4909839;29;20210;-84
2022/11/08 15:10:28;;;;;;;10.70;10.00;;;15.10;99.90;;;;;;4912141;29;20203;-84
2022/11/08 15:12:55;;;;;;;10.50;9.80;;;14.90;99.90;;;;;;4904079;29;20582;-82
2022/11/08 15:15:25;;;;;;;10.10;9.50;;;14.80;99.90;;;;;;4911530;29;20223;-83
2022/11/08 15:18:12;;;;;;;11.03;10.27;;;14.60;99.90;;;;;;4927844;29;20216;-83
2022/11/08 15:20:39;;;;;;;10.80;10.00;;;14.60;99.90;;;;;;4910325;29;20214;-85
2022/11/08 15:23:39;;;;;;;11.67;10.80;;;14.50;99.90;;;;;;4918077;29;20234;-83
2022/11/08 15:26:19;;;;;;;11.10;10.40;;;14.40;99.90;;;;;;4922643;29;20736;-83
2022/11/08 15:28:58;;;;;;;11.30;10.50;;;14.30;99.90;;;;;;4909818;29;20297;-83
2022/11/08 15:31:28;;;;;;;10.90;10.27;;;14.20;99.90;;;;;;4908224;29;20693;-83
2022/11/08 15:33:56;;;;;;;11.20;10.50;;;14.10;99.90;;;;;;4928651;29;20202;-83
2022/11/08 15:36:30;;;;;;;11.97;11.17;;;14.00;99.90;;;;;;4910384;29;20269;-82
2022/11/08 15:38:59;;;;;;;11.90;11.17;;;14.00;99.90;;;;;;4901924;29;20671;-83
2022/11/08 15:41:32;;;;;;;11.70;10.80;;;13.90;99.90;;;;;;4915192;29;20217;-83
2022/11/08 15:44:22;;;;;;;11.50;10.87;;;13.90;99.90;;;;;;4913346;29;20640;-83
2022/11/08 15:46:50;;;;;;;11.70;11.00;;;13.80;99.90;;;;;;4899983;29;20220;-83
2022/11/08 15:49:20;;;;;;;11.10;10.40;;;13.60;99.90;;;;;;4909146;29;20213;-83
2022/11/08 15:51:48;;;;;;;11.23;10.53;;;13.50;99.90;;;;;;4916667;29;20264;-83
2022/11/08 15:54:15;;;;;;;11.30;10.60;;;13.50;99.90;;;;;;4914247;29;20196;-82
2022/11/08 15:56:42;;;;;;;11.40;10.60;;;13.40;99.90;;;;;;4911369;29;20208;-83
2022/11/08 15:59:14;;;;;;;11.53;10.80;;;13.30;99.90;;;;;;4919737;29;20209;-84
2022/11/08 16:01:48;;;;;;;11.17;10.50;;;13.20;99.90;;;;;;4917050;29;20239;-82
2022/11/08 16:04:15;;;;;;;11.20;10.50;;;13.10;99.90;;;;;;4916867;29;20684;-82
2022/11/08 16:06:43;;;;;;;11.43;10.73;;;13.00;99.90;;;;;;4916878;29;20204;-83
2022/11/08 16:09:10;;;;;;;11.70;11.00;;;13.00;99.90;;;;;;4917435;29;20207;-82
2022/11/08 16:11:38;;;;;;;12.13;11.33;;;12.90;99.90;;;;;;4917380;29;20224;-83
2022/11/08 16:14:05;;;;;;;11.57;10.87;;;12.80;99.90;;;;;;4917791;29;20207;-82